createdAt,value
2022-11-05T05:02:52.715Z,8.02
2022-11-05T05:06:55.348Z,7.91
2022-11-05T05:11:02.238Z,8.02
2022-11-05T05:15:05.562Z,8.12
2022-11-05T05:19:09.490Z,8.20
2022-11-05T05:23:12.451Z,8.37
2022-11-05T05:27:15.442Z,8.40
2022-11-05T05:31:18.013Z,8.37
2022-11-05T05:35:21.960Z,8.45
2022-11-05T05:39:24.632Z,8.54
2022-11-05T05:43:27.353Z,8.54
2022-11-05T05:47:29.947Z,8.59
2022-11-05T05:51:33.856Z,8.49
2022-11-05T05:55:36.519Z,8.53
2022-11-05T05:59:39.089Z,8.70
2022-11-05T06:03:41.821Z,8.72
2022-11-05T06:07:45.787Z,8.81
2022-11-05T06:11:48.447Z,8.85
2022-11-05T06:15:51.103Z,8.84
2022-11-05T06:19:53.697Z,8.67
2022-11-05T06:23:57.634Z,8.65
2022-11-05T06:28:00.772Z,8.83
2022-11-05T06:32:03.385Z,8.81
2022-11-05T06:36:07.577Z,8.79
2022-11-05T06:40:12.316Z,8.99
2022-11-05T06:44:14.911Z,9.01
2022-11-05T06:48:17.506Z,9.08
2022-11-05T06:52:20.926Z,9.18
2022-11-05T06:56:25.343Z,9.26
2022-11-05T07:00:28.007Z,9.22
2022-11-05T07:04:30.642Z,9.05
2022-11-05T07:08:34.189Z,9.06
2022-11-05T07:12:37.981Z,9.23
2022-11-05T07:16:40.546Z,9.26
2022-11-05T07:20:43.208Z,9.30
2022-11-05T07:24:47.304Z,9.52
2022-11-05T07:28:51.468Z,9.58
2022-11-05T07:32:54.122Z,9.61
2022-11-05T07:36:56.758Z,9.83
2022-11-05T07:41:00.400Z,9.94
2022-11-05T07:45:04.958Z,10.19
2022-11-05T07:49:07.586Z,10.05
2022-11-05T07:53:12.519Z,10.27
2022-11-05T07:57:15.311Z,10.25
2022-11-05T08:01:19.439Z,10.34
2022-11-05T08:05:22.227Z,10.33
2022-11-05T08:09:24.828Z,10.54
2022-11-05T08:13:27.438Z,10.53
2022-11-05T08:17:31.422Z,10.70
2022-11-05T08:21:33.996Z,10.72
2022-11-05T08:25:36.868Z,10.76
2022-11-05T08:29:39.444Z,10.78
2022-11-05T08:33:43.637Z,10.81
2022-11-05T08:37:46.271Z,10.99
2022-11-05T08:41:50.095Z,11.12
2022-11-05T08:45:54.034Z,11.18
2022-11-05T08:49:57.954Z,11.29
2022-11-05T08:54:00.564Z,11.32
2022-11-05T08:58:04.906Z,11.49
2022-11-05T09:02:07.839Z,11.48
2022-11-05T09:06:11.937Z,11.74
2022-11-05T09:10:14.601Z,11.73
2022-11-05T09:14:17.245Z,11.81
2022-11-05T09:18:21.440Z,12.03
2022-11-05T09:22:25.552Z,12.23
2022-11-05T09:26:28.175Z,12.44
2022-11-05T09:30:30.783Z,12.77
2022-11-05T09:34:33.692Z,13.10
2022-11-05T09:38:37.647Z,13.45
2022-11-05T09:42:43.626Z,13.49
2022-11-05T09:46:50.949Z,13.52
2022-11-05T09:50:54.617Z,13.91
2022-11-05T09:54:59.302Z,14.03
2022-11-05T09:59:07.217Z,13.76
2022-11-05T10:03:15.042Z,13.84
2022-11-05T10:07:22.281Z,13.81
2022-11-05T10:11:32.705Z,13.98
2022-11-05T10:15:40.389Z,14.12
2022-11-05T10:19:47.030Z,13.98
2022-11-05T10:23:49.910Z,13.81
2022-11-05T10:27:55.904Z,13.81
2022-11-05T10:32:00.949Z,13.58
2022-11-05T10:36:07.086Z,13.76
2022-11-05T10:40:17.481Z,14.04
2022-11-05T10:44:36.706Z,14.46
2022-11-05T10:48:52.986Z,14.51
2022-11-05T10:52:59.758Z,14.44
2022-11-05T10:57:24.822Z,14.58
2022-11-05T11:01:30.467Z,14.82
2022-11-05T11:05:36.193Z,15.16
2022-11-05T11:09:39.489Z,15.49
2022-11-05T11:13:59.105Z,15.13
2022-11-05T11:18:27.957Z,14.55
2022-11-05T11:22:30.586Z,15.15
2022-11-05T11:26:34.913Z,14.76
2022-11-05T11:30:37.593Z,14.89
2022-11-05T11:34:43.452Z,14.91
2022-11-05T11:38:47.078Z,15.02
2022-11-05T11:42:54.401Z,15.05
2022-11-05T11:47:01.088Z,14.84
2022-11-05T11:51:18.237Z,14.67
2022-11-05T11:55:23.129Z,14.43
2022-11-05T11:59:53.851Z,14.27
2022-11-05T12:03:56.079Z,14.39
2022-11-05T12:08:11.149Z,14.33
2022-11-05T12:12:15.391Z,14.45
2022-11-05T12:16:30.330Z,14.40
2022-11-05T12:20:57.983Z,14.73
2022-11-05T12:25:22.547Z,15.37
2022-11-05T12:29:49.283Z,15.37
2022-11-05T12:34:03.415Z,15.36
2022-11-05T12:38:16.281Z,15.51
2022-11-05T12:42:33.933Z,15.65
2022-11-05T12:46:41.020Z,15.37
2022-11-05T12:50:46.356Z,14.99
2022-11-05T12:55:01.023Z,15.00
2022-11-05T12:59:12.162Z,15.03
2022-11-05T13:03:32.632Z,15.24
2022-11-05T13:07:40.070Z,15.01
2022-11-05T13:11:48.049Z,15.09
2022-11-05T13:15:55.875Z,15.12
2022-11-05T13:20:03.848Z,15.11
2022-11-05T13:24:13.633Z,14.96
2022-11-05T13:28:22.916Z,14.94
2022-11-05T13:32:31.154Z,14.84
2022-11-05T13:36:57.114Z,14.97
2022-11-05T13:41:13.289Z,15.15
2022-11-05T13:45:53.428Z,15.42
2022-11-05T13:50:14.674Z,15.25
2022-11-05T13:55:08.128Z,15.24
2022-11-05T13:59:55.428Z,14.93
2022-11-05T14:03:58.483Z,14.83
2022-11-05T14:08:10.150Z,14.91
2022-11-05T14:12:21.573Z,14.78
2022-11-05T14:16:26.436Z,15.03
2022-11-05T14:20:57.535Z,15.20
2022-11-05T14:25:02.586Z,15.29
2022-11-05T14:29:38.189Z,15.35
2022-11-05T14:33:40.986Z,15.25
2022-11-05T14:37:52.831Z,14.99
2022-11-05T14:42:03.604Z,14.71
2022-11-05T14:46:07.861Z,14.24
2022-11-05T14:50:18.657Z,13.98
2022-11-05T14:54:24.034Z,13.83
2022-11-05T14:58:36.902Z,13.50
2022-11-05T15:02:39.604Z,13.28
2022-11-05T15:07:33.142Z,13.20
2022-11-05T15:11:39.817Z,12.97
2022-11-05T15:15:47.946Z,12.74
2022-11-05T15:19:53.034Z,12.53
2022-11-05T15:23:57.748Z,12.37
2022-11-05T15:28:06.280Z,12.21
2022-11-05T15:32:17.345Z,12.10
2022-11-05T15:36:24.676Z,11.99
2022-11-05T15:40:31.823Z,11.90
2022-11-05T15:44:41.313Z,11.76
2022-11-05T15:48:49.820Z,11.66
2022-11-05T15:52:54.606Z,11.60
2022-11-05T15:56:59.629Z,11.63
2022-11-05T16:01:02.272Z,11.36
2022-11-05T16:05:13.461Z,10.95
2022-11-05T16:09:23.023Z,10.76
2022-11-05T16:13:33.124Z,10.66
2022-11-05T16:17:47.575Z,10.55
2022-11-05T16:21:57.694Z,10.53
2022-11-05T16:26:01.869Z,10.45
2022-11-05T16:30:04.987Z,10.34
2022-11-05T16:34:07.946Z,10.30
2022-11-05T16:38:14.295Z,10.16
2022-11-05T16:42:38.883Z,10.25
2022-11-05T16:46:45.159Z,10.29
2022-11-05T16:50:48.144Z,10.22
2022-11-05T16:54:52.097Z,10.16
2022-11-05T16:58:54.871Z,10.09
2022-11-05T17:02:57.691Z,10.10
2022-11-05T17:07:00.621Z,10.06
2022-11-05T17:11:04.971Z,10.02
2022-11-05T17:15:17.820Z,9.94
2022-11-05T17:19:20.453Z,9.87
2022-11-05T17:23:26.614Z,9.82
2022-11-05T17:27:30.609Z,9.84
2022-11-05T17:31:33.333Z,9.80
2022-11-05T17:35:38.876Z,9.78
2022-11-05T17:39:41.529Z,9.81
2022-11-05T17:43:45.855Z,9.68
2022-11-05T17:47:48.440Z,9.55
2022-11-05T17:51:51.182Z,9.62
2022-11-05T17:55:53.828Z,9.62
2022-11-05T17:59:58.372Z,9.67
2022-11-05T18:04:07.266Z,9.67
2022-11-05T18:08:12.459Z,9.70
2022-11-05T18:12:15.101Z,9.57
2022-11-05T18:16:19.077Z,9.48
2022-11-05T18:20:21.922Z,9.51
2022-11-05T18:24:24.658Z,9.53
2022-11-05T18:28:29.890Z,9.36
2022-11-05T18:32:34.171Z,9.30
2022-11-05T18:36:37.077Z,9.06
2022-11-05T18:40:40.072Z,9.02
2022-11-05T18:44:42.788Z,9.19
2022-11-05T18:48:47.113Z,9.24
2022-11-05T18:52:49.684Z,9.25
2022-11-05T18:56:52.442Z,9.17
2022-11-05T19:00:55.057Z,9.08
2022-11-05T19:09:21.674Z,8.95
2022-11-05T19:13:24.316Z,8.95
2022-11-05T19:17:27.001Z,8.96
2022-11-05T19:21:31.714Z,8.88
2022-11-05T19:25:34.402Z,8.85
2022-11-05T19:29:37.046Z,8.84
2022-11-05T19:33:39.675Z,8.80
2022-11-05T19:37:43.915Z,8.87
2022-11-05T19:41:47.745Z,8.76
2022-11-05T19:45:50.436Z,8.85
2022-11-05T19:49:53.112Z,8.89
2022-11-05T19:53:57.673Z,8.84
2022-11-05T19:58:00.441Z,8.70
2022-11-05T20:02:03.232Z,8.65
2022-11-05T20:06:08.711Z,8.65
2022-11-05T20:10:12.716Z,8.85
2022-11-05T20:14:15.416Z,8.89
2022-11-05T20:18:18.320Z,8.95
2022-11-05T20:22:21.161Z,8.85
2022-11-05T20:26:25.183Z,8.92
2022-11-05T20:30:27.891Z,8.87
2022-11-05T20:34:30.985Z,8.70
2022-11-05T20:38:34.231Z,8.63
2022-11-05T20:42:38.277Z,8.58
2022-11-05T20:46:41.337Z,8.45
2022-11-05T20:50:44.976Z,8.36
2022-11-05T20:54:47.937Z,8.32
2022-11-05T20:58:52.738Z,8.36
2022-11-05T21:02:55.535Z,8.37
2022-11-05T21:06:58.263Z,8.35
2022-11-05T21:11:01.603Z,8.21
2022-11-05T21:15:06.657Z,8.30
2022-11-05T21:19:09.623Z,8.34
2022-11-05T21:23:12.420Z,8.28
2022-11-05T21:27:15.027Z,8.25
2022-11-05T21:31:19.101Z,8.27
2022-11-05T21:35:21.741Z,8.31
2022-11-05T21:39:24.473Z,8.36
2022-11-05T21:43:27.073Z,8.33
2022-11-05T21:47:31.759Z,8.42
2022-11-05T21:51:52.275Z,8.48
2022-11-05T21:56:12.567Z,8.57
